sensor_id;sensor_type;location;lat;lon;timestamp;pressure;altitude;pressure_sealevel;temperature;humidity
9249;BME280;4660;41.768;26.198;2023-01-31T00:00:25;100526.13;;;-0.11;100.00
9249;BME280;4660;41.768;26.198;2023-01-31T00:02:50;100541.19;;;0.05;100.00
9249;BME280;4660;41.768;26.198;2023-01-31T00:05:16;100525.69;;;0.14;100.00
9249;BME280;4660;41.768;26.198;2023-01-31T00:07:44;100529.59;;;0.07;100.00
9249;BME280;4660;41.768;26.198;2023-01-31T00:10:10;100542.03;;;0.22;100.00
9249;BME280;4660;41.768;26.198;2023-01-31T00:12:36;100544.81;;;0.19;100.00
9249;BME280;4660;41.768;26.198;2023-01-31T00:15:02;100529.97;;;0.17;100.00
9249;BME280;4660;41.768;26.198;2023-01-31T00:17:28;100527.06;;;0.21;100.00
9249;BME280;4660;41.768;26.198;2023-01-31T00:19:53;100522.63;;;-0.29;100.00
9249;BME280;4660;41.768;26.198;2023-01-31T00:22:19;100521.53;;;-0.07;100.00
9249;BME280;4660;41.768;26.198;2023-01-31T00:24:44;100535.09;;;0.20;100.00
9249;BME280;4660;41.768;26.198;2023-01-31T00:27:10;100512.22;;;0.19;100.00
9249;BME280;4660;41.768;26.198;2023-01-31T00:29:35;100527.06;;;0.21;100.00
9249;BME280;4660;41.768;26.198;2023-01-31T00:32:00;100530.66;;;0.20;100.00
9249;BME280;4660;41.768;26.198;2023-01-31T00:34:26;100519.94;;;0.06;100.00
9249;BME280;4660;41.768;26.198;2023-01-31T00:36:51;100517.22;;;0.25;100.00
9249;BME280;4660;41.768;26.198;2023-01-31T00:39:17;100517.38;;;0.22;100.00
9249;BME280;4660;41.768;26.198;2023-01-31T00:41:42;100520.75;;;-0.09;100.00
9249;BME280;4660;41.768;26.198;2023-01-31T00:44:08;100524.00;;;-0.39;100.00
9249;BME280;4660;41.768;26.198;2023-01-31T00:46:33;100526.16;;;0.05;100.00
9249;BME280;4660;41.768;26.198;2023-01-31T00:48:59;100520.31;;;0.33;100.00
9249;BME280;4660;41.768;26.198;2023-01-31T00:51:26;100534.81;;;0.42;100.00
9249;BME280;4660;41.768;26.198;2023-01-31T00:53:51;100535.75;;;0.41;100.00
9249;BME280;4660;41.768;26.198;2023-01-31T00:56:19;100530.16;;;0.47;100.00
9249;BME280;4660;41.768;26.198;2023-01-31T00:58:47;100535.75;;;0.41;100.00
9249;BME280;4660;41.768;26.198;2023-01-31T01:01:18;100542.22;;;0.35;100.00
9249;BME280;4660;41.768;26.198;2023-01-31T01:03:45;100540.59;;;0.33;100.00
9249;BME280;4660;41.768;26.198;2023-01-31T01:06:11;100521.19;;;0.16;100.00
9249;BME280;4660;41.768;26.198;2023-01-31T01:08:38;100535.09;;;0.20;100.00
9249;BME280;4660;41.768;26.198;2023-01-31T01:11:11;100540.94;;;0.26;100.00
9249;BME280;4660;41.768;26.198;2023-01-31T01:13:38;100511.81;;;0.26;100.00
9249;BME280;4660;41.768;26.198;2023-01-31T01:16:06;100527.69;;;0.44;100.00
9249;BME280;4660;41.768;26.198;2023-01-31T01:18:32;100501.03;;;0.47;100.00
9249;BME280;4660;41.768;26.198;2023-01-31T01:21:11;100494.16;;;0.60;100.00
9249;BME280;4660;41.768;26.198;2023-01-31T01:23:39;100507.22;;;0.63;100.00
9249;BME280;4660;41.768;26.198;2023-01-31T01:26:05;100514.81;;;0.69;100.00
9249;BME280;4660;41.768;26.198;2023-01-31T01:28:36;100504.22;;;0.69;100.00
9249;BME280;4660;41.768;26.198;2023-01-31T01:31:06;100484.19;;;0.65;100.00
9249;BME280;4660;41.768;26.198;2023-01-31T01:33:32;100506.81;;;0.87;100.00
9249;BME280;4660;41.768;26.198;2023-01-31T01:36:05;100498.44;;;0.94;100.00
9249;BME280;4660;41.768;26.198;2023-01-31T01:38:35;100487.59;;;0.83;100.00
9249;BME280;4660;41.768;26.198;2023-01-31T01:41:02;100498.09;;;0.36;100.00
9249;BME280;4660;41.768;26.198;2023-01-31T01:43:45;100487.31;;;-0.10;100.00
9249;BME280;4660;41.768;26.198;2023-01-31T01:46:24;100489.81;;;0.26;100.00
9249;BME280;4660;41.768;26.198;2023-01-31T01:48:56;100479.88;;;0.47;100.00
9249;BME280;4660;41.768;26.198;2023-01-31T01:51:23;100492.34;;;0.45;100.00
9249;BME280;4660;41.768;26.198;2023-01-31T01:53:51;100478.28;;;0.27;100.00
9249;BME280;4660;41.768;26.198;2023-01-31T01:56:24;100477.84;;;0.52;100.00
9249;BME280;4660;41.768;26.198;2023-01-31T01:59:02;100458.16;;;0.24;100.00
9249;BME280;4660;41.768;26.198;2023-01-31T02:01:32;100472.00;;;0.30;100.00
9249;BME280;4660;41.768;26.198;2023-01-31T02:03:58;100489.53;;;0.15;100.00
9249;BME280;4660;41.768;26.198;2023-01-31T02:06:24;100491.91;;;0.37;100.00
9249;BME280;4660;41.768;26.198;2023-01-31T02:08:50;100478.47;;;0.24;100.00
9249;BME280;4660;41.768;26.198;2023-01-31T02:11:25;100494.38;;;-0.11;100.00
9249;BME280;4660;41.768;26.198;2023-01-31T02:14:00;100485.47;;;-0.25;100.00
9249;BME280;4660;41.768;26.198;2023-01-31T02:16:25;100485.47;;;-0.25;100.00
9249;BME280;4660;41.768;26.198;2023-01-31T02:18:51;100488.25;;;-0.11;100.00
9249;BME280;4660;41.768;26.198;2023-01-31T02:27:11;100496.41;;;-0.16;100.00
9249;BME280;4660;41.768;26.198;2023-01-31T02:39:25;100481.22;;;0.05;100.00
9249;BME280;4660;41.768;26.198;2023-01-31T02:44:26;100483.06;;;0.20;100.00
9249;BME280;4660;41.768;26.198;2023-01-31T02:53:13;100497.97;;;-0.12;100.00
9249;BME280;4660;41.768;26.198;2023-01-31T02:55:52;100491.50;;;-0.06;100.00
9249;BME280;4660;41.768;26.198;2023-01-31T02:58:39;100496.19;;;-0.29;100.00
9249;BME280;4660;41.768;26.198;2023-01-31T03:01:11;100490.72;;;-0.08;100.00
9249;BME280;4660;41.768;26.198;2023-01-31T03:03:38;100479.47;;;0.21;100.00
9249;BME280;4660;41.768;26.198;2023-01-31T03:08:37;100489.00;;;0.57;100.00
9249;BME280;4660;41.768;26.198;2023-01-31T03:11:06;100491.91;;;0.52;100.00
9249;BME280;4660;41.768;26.198;2023-01-31T03:14:02;100489.84;;;0.42;100.00
9249;BME280;4660;41.768;26.198;2023-01-31T03:16:28;100498.84;;;0.71;100.00
9249;BME280;4660;41.768;26.198;2023-01-31T03:19:22;100494.25;;;0.74;100.00
9249;BME280;4660;41.768;26.198;2023-01-31T03:21:59;100489.47;;;0.97;100.00
9249;BME280;4660;41.768;26.198;2023-01-31T03:24:25;100489.28;;;1.00;100.00
9249;BME280;4660;41.768;26.198;2023-01-31T03:26:56;100488.25;;;0.71;100.00
9249;BME280;4660;41.768;26.198;2023-01-31T03:29:24;100493.38;;;0.58;100.00
9249;BME280;4660;41.768;26.198;2023-01-31T03:32:06;100488.03;;;0.26;100.00
9249;BME280;4660;41.768;26.198;2023-01-31T03:34:33;100487.41;;;0.70;100.00
9249;BME280;4660;41.768;26.198;2023-01-31T03:39:51;100486.56;;;1.17;100.00
9249;BME280;4660;41.768;26.198;2023-01-31T03:42:27;100509.13;;;1.24;100.00
9249;BME280;4660;41.768;26.198;2023-01-31T03:45:06;100497.47;;;1.27;100.00
9249;BME280;4660;41.768;26.198;2023-01-31T03:47:53;100480.47;;;1.31;100.00
9249;BME280;4660;41.768;26.198;2023-01-31T03:50:32;100493.13;;;1.26;100.00
9249;BME280;4660;41.768;26.198;2023-01-31T03:53:06;100483.38;;;1.26;100.00
9249;BME280;4660;41.768;26.198;2023-01-31T03:58:10;100498.41;;;1.26;100.00
9249;BME280;4660;41.768;26.198;2023-01-31T04:00:40;100491.53;;;1.07;100.00
9249;BME280;4660;41.768;26.198;2023-01-31T04:03:18;100484.34;;;1.09;100.00
9249;BME280;4660;41.768;26.198;2023-01-31T04:05:45;100491.31;;;1.26;100.00
9249;BME280;4660;41.768;26.198;2023-01-31T04:08:11;100496.59;;;1.42;100.00
9249;BME280;4660;41.768;26.198;2023-01-31T04:10:37;100498.03;;;1.48;100.00
9249;BME280;4660;41.768;26.198;2023-01-31T04:13:02;100474.88;;;1.35;100.00
9249;BME280;4660;41.768;26.198;2023-01-31T04:15:28;100488.19;;;1.50;100.00
9249;BME280;4660;41.768;26.198;2023-01-31T04:17:53;100482.88;;;1.50;100.00
9249;BME280;4660;41.768;26.198;2023-01-31T04:20:19;100478.28;;;1.53;100.00
9249;BME280;4660;41.768;26.198;2023-01-31T04:22:44;100488.88;;;1.53;100.00
9249;BME280;4660;41.768;26.198;2023-01-31T04:25:10;100478.81;;;1.28;100.00
9249;BME280;4660;41.768;26.198;2023-01-31T04:27:36;100497.28;;;1.46;100.00
9249;BME280;4660;41.768;26.198;2023-01-31T04:30:02;100500.97;;;1.27;100.00
9249;BME280;4660;41.768;26.198;2023-01-31T04:32:28;100499.88;;;1.31;100.00
9249;BME280;4660;41.768;26.198;2023-01-31T04:34:53;100498.22;;;1.45;100.00
9249;BME280;4660;41.768;26.198;2023-01-31T04:37:19;100488.47;;;1.45;100.00
9249;BME280;4660;41.768;26.198;2023-01-31T04:39:44;100479.16;;;1.38;100.00
9249;BME280;4660;41.768;26.198;2023-01-31T04:42:10;100496.66;;;0.95;100.00
9249;BME280;4660;41.768;26.198;2023-01-31T04:44:35;100479.13;;;0.76;100.00
9249;BME280;4660;41.768;26.198;2023-01-31T04:47:00;100484.94;;;0.83;100.00
9249;BME280;4660;41.768;26.198;2023-01-31T04:49:26;100502.09;;;0.92;100.00
9249;BME280;4660;41.768;26.198;2023-01-31T04:51:51;100509.81;;;0.96;100.00
9249;BME280;4660;41.768;26.198;2023-01-31T04:54:17;100531.13;;;0.77;100.00
9249;BME280;4660;41.768;26.198;2023-01-31T04:56:42;100478.16;;;0.46;100.00
9249;BME280;4660;41.768;26.198;2023-01-31T04:59:08;100515.63;;;0.87;100.00
9249;BME280;4660;41.768;26.198;2023-01-31T05:01:33;100516.81;;;0.81;100.00
9249;BME280;4660;41.768;26.198;2023-01-31T05:03:59;100515.44;;;0.74;100.00
9249;BME280;4660;41.768;26.198;2023-01-31T05:06:25;100518.59;;;0.65;100.00
9249;BME280;4660;41.768;26.198;2023-01-31T05:08:51;100503.91;;;0.75;100.00
9249;BME280;4660;41.768;26.198;2023-01-31T05:11:19;100522.09;;;1.13;100.00
9249;BME280;4660;41.768;26.198;2023-01-31T05:13:44;100530.13;;;1.27;100.00
9249;BME280;4660;41.768;26.198;2023-01-31T05:16:11;100512.63;;;1.25;100.00
9249;BME280;4660;41.768;26.198;2023-01-31T05:18:37;100504.75;;;0.76;100.00
9249;BME280;4660;41.768;26.198;2023-01-31T05:21:05;100516.53;;;0.70;100.00
9249;BME280;4660;41.768;26.198;2023-01-31T05:23:31;100512.16;;;0.69;100.00
9249;BME280;4660;41.768;26.198;2023-01-31T05:25:56;100522.25;;;0.78;100.00
9249;BME280;4660;41.768;26.198;2023-01-31T05:28:23;100512.53;;;0.79;100.00
9249;BME280;4660;41.768;26.198;2023-01-31T05:30:51;100487.41;;;0.70;100.00
9249;BME280;4660;41.768;26.198;2023-01-31T05:33:17;100511.66;;;0.78;100.00
9249;BME280;4660;41.768;26.198;2023-01-31T05:35:46;100512.38;;;0.82;100.00
9249;BME280;4660;41.768;26.198;2023-01-31T05:38:11;100491.41;;;0.62;100.00
9249;BME280;4660;41.768;26.198;2023-01-31T05:40:38;100494.59;;;0.84;100.00
9249;BME280;4660;41.768;26.198;2023-01-31T05:43:03;100512.03;;;1.04;100.00
9249;BME280;4660;41.768;26.198;2023-01-31T05:45:29;100467.59;;;0.62;100.00
9249;BME280;4660;41.768;26.198;2023-01-31T05:47:56;100521.41;;;1.25;100.00
9249;BME280;4660;41.768;26.198;2023-01-31T05:50:22;100530.13;;;1.43;100.00
9249;BME280;4660;41.768;26.198;2023-01-31T05:52:52;100533.84;;;1.55;100.00
9249;BME280;4660;41.768;26.198;2023-01-31T05:55:20;100521.22;;;1.28;100.00
9249;BME280;4660;41.768;26.198;2023-01-31T05:57:45;100513.56;;;1.24;100.00
9249;BME280;4660;41.768;26.198;2023-01-31T06:00:12;100541.13;;;1.35;100.00
9249;BME280;4660;41.768;26.198;2023-01-31T06:02:39;100548.44;;;1.16;100.00
9249;BME280;4660;41.768;26.198;2023-01-31T06:05:06;100544.06;;;1.31;100.00
9249;BME280;4660;41.768;26.198;2023-01-31T06:07:32;100549.63;;;1.26;100.00
9249;BME280;4660;41.768;26.198;2023-01-31T06:09:58;100535.78;;;0.90;100.00
9249;BME280;4660;41.768;26.198;2023-01-31T06:12:23;100548.06;;;0.91;100.00
9249;BME280;4660;41.768;26.198;2023-01-31T06:14:49;100566.19;;;1.14;100.00
9249;BME280;4660;41.768;26.198;2023-01-31T06:17:15;100551.00;;;1.02;100.00
9249;BME280;4660;41.768;26.198;2023-01-31T06:19:40;100547.06;;;1.09;100.00
9249;BME280;4660;41.768;26.198;2023-01-31T06:22:06;100548.66;;;1.27;100.00
9249;BME280;4660;41.768;26.198;2023-01-31T06:24:32;100543.13;;;1.16;100.00
9249;BME280;4660;41.768;26.198;2023-01-31T06:26:57;100543.09;;;1.48;100.00
9249;BME280;4660;41.768;26.198;2023-01-31T06:29:23;100548.84;;;1.40;100.00
9249;BME280;4660;41.768;26.198;2023-01-31T06:31:48;100531.16;;;1.09;100.00
9249;BME280;4660;41.768;26.198;2023-01-31T06:34:14;100527.91;;;1.20;100.00
9249;BME280;4660;41.768;26.198;2023-01-31T06:36:39;100549.16;;;1.50;100.00
9249;BME280;4660;41.768;26.198;2023-01-31T06:39:05;100563.78;;;1.41;100.00
9249;BME280;4660;41.768;26.198;2023-01-31T06:41:31;100558.41;;;1.43;100.00
9249;BME280;4660;41.768;26.198;2023-01-31T06:43:56;100555.63;;;1.30;100.00
9249;BME280;4660;41.768;26.198;2023-01-31T06:46:22;100565.78;;;1.37;100.00
9249;BME280;4660;41.768;26.198;2023-01-31T06:48:48;100573.13;;;1.32;100.00
9249;BME280;4660;41.768;26.198;2023-01-31T06:51:15;100571.25;;;1.50;100.00
9249;BME280;4660;41.768;26.198;2023-01-31T06:53:41;100578.09;;;1.84;100.00
9249;BME280;4660;41.768;26.198;2023-01-31T06:56:07;100581.97;;;2.09;100.00
9249;BME280;4660;41.768;26.198;2023-01-31T06:58:33;100584.44;;;2.12;100.00
9249;BME280;4660;41.768;26.198;2023-01-31T07:01:11;100564.34;;;2.08;100.00
9249;BME280;4660;41.768;26.198;2023-01-31T07:03:38;100561.88;;;2.05;100.00
9249;BME280;4660;41.768;26.198;2023-01-31T07:06:04;100585.88;;;2.17;100.00
9249;BME280;4660;41.768;26.198;2023-01-31T07:08:30;100615.41;;;2.41;100.00
9249;BME280;4660;41.768;26.198;2023-01-31T07:10:57;100618.84;;;2.43;100.00
9249;BME280;4660;41.768;26.198;2023-01-31T07:13:23;100621.41;;;2.45;100.00
9249;BME280;4660;41.768;26.198;2023-01-31T07:15:49;100624.06;;;2.45;100.00
9249;BME280;4660;41.768;26.198;2023-01-31T07:18:18;100618.66;;;2.46;100.00
9249;BME280;4660;41.768;26.198;2023-01-31T07:20:50;100617.13;;;2.57;100.00
9249;BME280;4660;41.768;26.198;2023-01-31T07:23:16;100629.06;;;2.49;100.00
9249;BME280;4660;41.768;26.198;2023-01-31T07:25:41;100580.41;;;2.35;100.00
9249;BME280;4660;41.768;26.198;2023-01-31T07:28:08;100624.63;;;2.64;100.00
9249;BME280;4660;41.768;26.198;2023-01-31T07:30:36;100623.22;;;2.44;100.00
9249;BME280;4660;41.768;26.198;2023-01-31T07:33:23;100627.28;;;2.64;100.00
9249;BME280;4660;41.768;26.198;2023-01-31T07:35:49;100627.50;;;2.61;100.00
9249;BME280;4660;41.768;26.198;2023-01-31T07:38:14;100625.09;;;2.57;100.00
9249;BME280;4660;41.768;26.198;2023-01-31T07:40:42;100608.25;;;2.58;100.00
9249;BME280;4660;41.768;26.198;2023-01-31T07:43:07;100608.50;;;2.39;100.00
9249;BME280;4660;41.768;26.198;2023-01-31T07:45:33;100618.28;;;2.53;100.00
9249;BME280;4660;41.768;26.198;2023-01-31T07:47:58;100599.72;;;2.67;100.00
9249;BME280;4660;41.768;26.198;2023-01-31T07:50:25;100584.50;;;2.55;100.00
9249;BME280;4660;41.768;26.198;2023-01-31T07:52:57;100595.72;;;2.74;100.00
9249;BME280;4660;41.768;26.198;2023-01-31T07:55:23;100627.72;;;3.15;100.00
9249;BME280;4660;41.768;26.198;2023-01-31T07:57:49;100641.06;;;2.99;100.00
9249;BME280;4660;41.768;26.198;2023-01-31T08:00:15;100636.31;;;3.19;100.00
9249;BME280;4660;41.768;26.198;2023-01-31T08:03:00;100612.41;;;3.19;100.00
9249;BME280;4660;41.768;26.198;2023-01-31T08:05:45;100626.06;;;3.27;100.00
9249;BME280;4660;41.768;26.198;2023-01-31T08:08:11;100648.66;;;3.34;100.00
9249;BME280;4660;41.768;26.198;2023-01-31T08:10:36;100635.53;;;3.45;100.00
9249;BME280;4660;41.768;26.198;2023-01-31T08:13:03;100635.59;;;3.17;100.00
9249;BME280;4660;41.768;26.198;2023-01-31T08:15:28;100651.31;;;3.06;100.00
9249;BME280;4660;41.768;26.198;2023-01-31T08:17:54;100585.38;;;2.55;100.00
9249;BME280;4660;41.768;26.198;2023-01-31T08:20:20;100648.19;;;2.99;100.00
9249;BME280;4660;41.768;26.198;2023-01-31T08:22:46;100624.47;;;2.96;100.00
9249;BME280;4660;41.768;26.198;2023-01-31T08:25:11;100633.66;;;3.19;100.00
9249;BME280;4660;41.768;26.198;2023-01-31T08:27:37;100641.72;;;3.46;100.00
9249;BME280;4660;41.768;26.198;2023-01-31T08:30:03;100613.13;;;3.35;100.00
9249;BME280;4660;41.768;26.198;2023-01-31T08:32:29;100613.91;;;3.64;100.00
9249;BME280;4660;41.768;26.198;2023-01-31T08:34:54;100621.91;;;3.91;100.00
9249;BME280;4660;41.768;26.198;2023-01-31T08:37:20;100616.19;;;3.97;100.00
9249;BME280;4660;41.768;26.198;2023-01-31T08:39:45;100628.06;;;3.92;100.00
9249;BME280;4660;41.768;26.198;2023-01-31T08:42:13;100642.03;;;3.68;100.00
9249;BME280;4660;41.768;26.198;2023-01-31T08:44:38;100631.72;;;3.49;100.00
9249;BME280;4660;41.768;26.198;2023-01-31T08:47:04;100637.38;;;3.72;100.00
9249;BME280;4660;41.768;26.198;2023-01-31T08:49:30;100626.31;;;3.78;100.00
9249;BME280;4660;41.768;26.198;2023-01-31T08:51:58;100620.41;;;3.60;100.00
9249;BME280;4660;41.768;26.198;2023-01-31T08:54:23;100623.81;;;3.89;100.00
9249;BME280;4660;41.768;26.198;2023-01-31T08:56:48;100637.34;;;4.26;100.00
9249;BME280;4660;41.768;26.198;2023-01-31T08:59:14;100627.50;;;4.13;100.00
9249;BME280;4660;41.768;26.198;2023-01-31T09:01:40;100635.78;;;3.96;100.00
9249;BME280;4660;41.768;26.198;2023-01-31T09:04:08;100628.94;;;3.92;100.00
9249;BME280;4660;41.768;26.198;2023-01-31T09:06:33;100627.59;;;3.72;100.00
9249;BME280;4660;41.768;26.198;2023-01-31T09:08:59;100630.59;;;4.07;100.00
9249;BME280;4660;41.768;26.198;2023-01-31T09:14:05;100520.72;;;3.66;100.00
9249;BME280;4660;41.768;26.198;2023-01-31T09:23:15;100642.94;;;4.48;100.00
9249;BME280;4660;41.768;26.198;2023-01-31T09:31:49;100621.47;;;4.24;100.00
9249;BME280;4660;41.768;26.198;2023-01-31T09:34:35;100550.06;;;3.91;100.00
9249;BME280;4660;41.768;26.198;2023-01-31T09:37:06;100486.28;;;3.50;100.00
9249;BME280;4660;41.768;26.198;2023-01-31T09:45:27;100514.06;;;3.46;100.00
9249;BME280;4660;41.768;26.198;2023-01-31T09:48:06;100596.53;;;4.12;100.00
9249;BME280;4660;41.768;26.198;2023-01-31T09:51:11;100499.44;;;3.66;100.00
9249;BME280;4660;41.768;26.198;2023-01-31T09:53:55;100472.72;;;3.54;100.00
9249;BME280;4660;41.768;26.198;2023-01-31T10:12:09;100585.84;;;4.65;100.00
9249;BME280;4660;41.768;26.198;2023-01-31T10:15:34;100562.59;;;4.80;100.00
9249;BME280;4660;41.768;26.198;2023-01-31T10:22:05;100451.56;;;4.42;100.00
9249;BME280;4660;41.768;26.198;2023-01-31T10:28:45;100464.28;;;4.88;100.00
9249;BME280;4660;41.768;26.198;2023-01-31T10:31:57;100565.50;;;5.50;100.00
9249;BME280;4660;41.768;26.198;2023-01-31T10:35:08;100387.84;;;4.52;100.00
9249;BME280;4660;41.768;26.198;2023-01-31T10:38:29;100438.91;;;4.82;100.00
9249;BME280;4660;41.768;26.198;2023-01-31T10:41:49;100391.03;;;4.57;100.00
9249;BME280;4660;41.768;26.198;2023-01-31T10:46:50;100509.88;;;5.33;100.00
9249;BME280;4660;41.768;26.198;2023-01-31T11:07:41;100409.06;;;5.49;100.00
9249;BME280;4660;41.768;26.198;2023-01-31T11:11:03;100534.03;;;6.25;100.00
9249;BME280;4660;41.768;26.198;2023-01-31T11:14:28;100367.66;;;5.32;100.00
9249;BME280;4660;41.768;26.198;2023-01-31T11:25:22;100437.03;;;5.78;100.00
9249;BME280;4660;41.768;26.198;2023-01-31T11:27:57;100425.63;;;5.76;100.00
9249;BME280;4660;41.768;26.198;2023-01-31T11:30:40;100500.75;;;6.18;100.00
9249;BME280;4660;41.768;26.198;2023-01-31T11:33:37;100547.69;;;6.45;100.00
9249;BME280;4660;41.768;26.198;2023-01-31T11:36:18;100504.06;;;6.33;100.00
9249;BME280;4660;41.768;26.198;2023-01-31T11:39:34;100418.91;;;6.06;100.00
9249;BME280;4660;41.768;26.198;2023-01-31T11:42:33;100512.94;;;6.89;100.00
9249;BME280;4660;41.768;26.198;2023-01-31T11:45:24;100420.53;;;6.31;100.00
9249;BME280;4660;41.768;26.198;2023-01-31T11:48:22;100387.47;;;6.21;100.00
9249;BME280;4660;41.768;26.198;2023-01-31T11:51:04;100514.38;;;7.16;100.00
9249;BME280;4660;41.768;26.198;2023-01-31T11:53:58;100472.50;;;6.72;100.00
9249;BME280;4660;41.768;26.198;2023-01-31T11:57:30;100484.25;;;7.03;100.00
9249;BME280;4660;41.768;26.198;2023-01-31T12:00:24;100437.72;;;6.83;100.00
9249;BME280;4660;41.768;26.198;2023-01-31T12:03:06;100413.78;;;6.81;100.00
9249;BME280;4660;41.768;26.198;2023-01-31T12:05:43;100429.75;;;6.72;100.00
9249;BME280;4660;41.768;26.198;2023-01-31T12:08:40;100407.13;;;6.76;100.00
9249;BME280;4660;41.768;26.198;2023-01-31T12:11:28;100499.88;;;7.30;100.00
9249;BME280;4660;41.768;26.198;2023-01-31T12:14:16;100385.81;;;6.85;100.00
9249;BME280;4660;41.768;26.198;2023-01-31T12:17:15;100441.44;;;7.46;100.00
9249;BME280;4660;41.768;26.198;2023-01-31T12:41:54;100517.69;;;8.37;100.00
9249;BME280;4660;41.768;26.198;2023-01-31T12:45:11;100431.66;;;7.56;100.00
9249;BME280;4660;41.768;26.198;2023-01-31T12:59:08;100429.16;;;7.11;100.00
9249;BME280;4660;41.768;26.198;2023-01-31T13:14:13;100537.97;;;7.65;100.00
9249;BME280;4660;41.768;26.198;2023-01-31T13:25:41;100537.16;;;7.86;100.00
9249;BME280;4660;41.768;26.198;2023-01-31T13:32:14;100550.66;;;7.95;100.00
9249;BME280;4660;41.768;26.198;2023-01-31T13:38:49;100461.78;;;7.37;100.00
9249;BME280;4660;41.768;26.198;2023-01-31T13:42:11;100540.97;;;8.04;100.00
9249;BME280;4660;41.768;26.198;2023-01-31T13:45:04;100436.03;;;7.25;100.00
9249;BME280;4660;41.768;26.198;2023-01-31T13:57:39;100508.63;;;7.64;100.00
9249;BME280;4660;41.768;26.198;2023-01-31T14:11:48;100479.34;;;7.83;96.80
9249;BME280;4660;41.768;26.198;2023-01-31T14:24:00;100551.16;;;7.89;92.00
9249;BME280;4660;41.768;26.198;2023-01-31T14:43:55;100570.00;;;7.56;96.90
9249;BME280;4660;41.768;26.198;2023-01-31T14:53:56;100577.00;;;7.25;100.00
9249;BME280;4660;41.768;26.198;2023-01-31T15:09:18;100465.78;;;6.10;100.00
9249;BME280;4660;41.768;26.198;2023-01-31T15:12:57;100598.41;;;6.80;100.00
9249;BME280;4660;41.768;26.198;2023-01-31T15:15:40;100503.69;;;6.26;100.00
9249;BME280;4660;41.768;26.198;2023-01-31T15:37:44;100619.13;;;6.54;100.00
9249;BME280;4660;41.768;26.198;2023-01-31T15:41:03;100524.22;;;5.91;100.00
9249;BME280;4660;41.768;26.198;2023-01-31T15:49:33;100599.25;;;5.99;100.00
9249;BME280;4660;41.768;26.198;2023-01-31T15:52:35;100647.66;;;6.18;100.00
9249;BME280;4660;41.768;26.198;2023-01-31T15:55:17;100570.22;;;5.70;100.00
9249;BME280;4660;41.768;26.198;2023-01-31T15:58:05;100646.88;;;6.05;100.00
9249;BME280;4660;41.768;26.198;2023-01-31T16:08:49;100666.66;;;6.02;100.00
9249;BME280;4660;41.768;26.198;2023-01-31T16:12:11;100676.69;;;5.99;100.00
9249;BME280;4660;41.768;26.198;2023-01-31T16:15:13;100539.44;;;5.30;100.00
9249;BME280;4660;41.768;26.198;2023-01-31T16:18:28;100595.94;;;5.71;100.00
9249;BME280;4660;41.768;26.198;2023-01-31T16:21:38;100619.19;;;5.82;100.00
9249;BME280;4660;41.768;26.198;2023-01-31T16:29:48;100587.41;;;5.42;100.00
9249;BME280;4660;41.768;26.198;2023-01-31T16:32:53;100711.59;;;6.32;100.00
9249;BME280;4660;41.768;26.198;2023-01-31T16:35:30;100583.38;;;5.37;100.00
9249;BME280;4660;41.768;26.198;2023-01-31T16:38:18;100713.88;;;6.02;100.00
9249;BME280;4660;41.768;26.198;2023-01-31T16:40:58;100671.69;;;5.58;100.00
9249;BME280;4660;41.768;26.198;2023-01-31T16:43:55;100597.53;;;5.01;100.00
9249;BME280;4660;41.768;26.198;2023-01-31T16:46:53;100712.16;;;5.39;100.00
9249;BME280;4660;41.768;26.198;2023-01-31T16:49:47;100762.44;;;5.45;100.00
9249;BME280;4660;41.768;26.198;2023-01-31T16:52:32;100749.84;;;5.21;100.00
9249;BME280;4660;41.768;26.198;2023-01-31T17:05:18;100665.56;;;4.68;100.00
9249;BME280;4660;41.768;26.198;2023-01-31T17:08:17;100738.41;;;5.19;100.00
9249;BME280;4660;41.768;26.198;2023-01-31T17:18:10;100662.78;;;4.69;100.00
9249;BME280;4660;41.768;26.198;2023-01-31T17:21:45;100672.81;;;4.66;100.00
9249;BME280;4660;41.768;26.198;2023-01-31T17:24:27;100749.06;;;5.19;100.00
9249;BME280;4660;41.768;26.198;2023-01-31T17:29:58;100744.94;;;5.15;100.00
9249;BME280;4660;41.768;26.198;2023-01-31T17:33:21;100686.66;;;4.84;100.00
9249;BME280;4660;41.768;26.198;2023-01-31T17:35:56;100612.44;;;4.39;100.00
9249;BME280;4660;41.768;26.198;2023-01-31T17:39:03;100639.44;;;4.60;100.00
9249;BME280;4660;41.768;26.198;2023-01-31T17:44:50;100764.84;;;4.97;100.00
9249;BME280;4660;41.768;26.198;2023-01-31T17:47:32;100771.34;;;4.93;100.00
9249;BME280;4660;41.768;26.198;2023-01-31T17:50:24;100776.47;;;4.96;100.00
9249;BME280;4660;41.768;26.198;2023-01-31T17:53:38;100752.84;;;4.64;100.00
9249;BME280;4660;41.768;26.198;2023-01-31T17:56:10;100692.13;;;4.30;100.00
9249;BME280;4660;41.768;26.198;2023-01-31T17:58:51;100637.13;;;3.89;100.00
9249;BME280;4660;41.768;26.198;2023-01-31T18:01:22;100669.22;;;4.00;100.00
9249;BME280;4660;41.768;26.198;2023-01-31T18:03:53;100798.63;;;4.84;100.00
9249;BME280;4660;41.768;26.198;2023-01-31T18:06:24;100775.59;;;4.56;100.00
9249;BME280;4660;41.768;26.198;2023-01-31T18:09:24;100710.38;;;4.09;100.00
9249;BME280;4660;41.768;26.198;2023-01-31T18:12:16;100678.78;;;3.76;100.00
9249;BME280;4660;41.768;26.198;2023-01-31T18:15:40;100729.84;;;4.09;100.00
9249;BME280;4660;41.768;26.198;2023-01-31T18:18:29;100806.28;;;4.49;100.00
9249;BME280;4660;41.768;26.198;2023-01-31T18:21:13;100815.84;;;4.65;100.00
9249;BME280;4660;41.768;26.198;2023-01-31T18:24:09;100824.25;;;4.59;100.00
9249;BME280;4660;41.768;26.198;2023-01-31T18:26:42;100746.31;;;4.02;100.00
9249;BME280;4660;41.768;26.198;2023-01-31T18:29:39;100736.53;;;4.02;100.00
9249;BME280;4660;41.768;26.198;2023-01-31T18:32:17;100716.72;;;4.06;100.00
9249;BME280;4660;41.768;26.198;2023-01-31T18:35:00;100821.97;;;4.53;100.00
9249;BME280;4660;41.768;26.198;2023-01-31T18:42:50;100821.56;;;4.59;100.00
9249;BME280;4660;41.768;26.198;2023-01-31T18:45:24;100821.25;;;4.37;100.00
9249;BME280;4660;41.768;26.198;2023-01-31T18:48:14;100712.06;;;3.69;100.00